sensor_id;sensor_type;location;lat;lon;timestamp;pressure;altitude;pressure_sealevel;temperature
69785;BMP280;14177;51.520;6.764;2024-01-27T00:01:44;103207.53;;;3.72
69785;BMP280;14177;51.520;6.764;2024-01-27T00:04:17;103217.72;;;3.69
69785;BMP280;14177;51.520;6.764;2024-01-27T00:07:15;103231.34;;;3.67
69785;BMP280;14177;51.520;6.764;2024-01-27T00:09:49;103231.25;;;3.64
69785;BMP280;14177;51.520;6.764;2024-01-27T00:12:21;103233.81;;;3.64
69785;BMP280;14177;51.520;6.764;2024-01-27T00:15:06;103233.81;;;3.64
69785;BMP280;14177;51.520;6.764;2024-01-27T00:17:57;103226.94;;;3.63
69785;BMP280;14177;51.520;6.764;2024-01-27T00:20:56;103230.28;;;3.60
69785;BMP280;14177;51.520;6.764;2024-01-27T00:40:15;103246.94;;;3.48
69785;BMP280;14177;51.520;6.764;2024-01-27T00:42:44;103248.59;;;3.46
69785;BMP280;14177;51.520;6.764;2024-01-27T00:45:33;103243.28;;;3.42
69785;BMP280;14177;51.520;6.764;2024-01-27T00:48:23;103241.44;;;3.38
69785;BMP280;14177;51.520;6.764;2024-01-27T00:50:54;103246.47;;;3.35
69785;BMP280;14177;51.520;6.764;2024-01-27T00:53:49;103255.72;;;3.31
69785;BMP280;14177;51.520;6.764;2024-01-27T00:57:08;103265.16;;;3.31
69785;BMP280;14177;51.520;6.764;2024-01-27T00:59:40;103260.72;;;3.27
69785;BMP280;14177;51.520;6.764;2024-01-27T01:02:09;103267.38;;;3.22
69785;BMP280;14177;51.520;6.764;2024-01-27T01:04:36;103259.44;;;3.16
69785;BMP280;14177;51.520;6.764;2024-01-27T01:07:03;103255.88;;;3.12
69785;BMP280;14177;51.520;6.764;2024-01-27T01:09:31;103265.28;;;3.12
69785;BMP280;14177;51.520;6.764;2024-01-27T01:11:58;103262.78;;;3.13
69785;BMP280;14177;51.520;6.764;2024-01-27T01:14:25;103260.13;;;3.12
69785;BMP280;14177;51.520;6.764;2024-01-27T01:16:52;103260.13;;;3.12
69785;BMP280;14177;51.520;6.764;2024-01-27T01:19:19;103260.00;;;3.09
69785;BMP280;14177;51.520;6.764;2024-01-27T01:21:46;103248.75;;;3.05
69785;BMP280;14177;51.520;6.764;2024-01-27T01:24:14;103257.22;;;3.03
69785;BMP280;14177;51.520;6.764;2024-01-27T01:26:41;103263.94;;;2.99
69785;BMP280;14177;51.520;6.764;2024-01-27T01:29:08;103263.00;;;2.97
69785;BMP280;14177;51.520;6.764;2024-01-27T01:31:35;103261.25;;;2.96
69785;BMP280;14177;51.520;6.764;2024-01-27T01:34:02;103268.88;;;2.95
69785;BMP280;14177;51.520;6.764;2024-01-27T01:36:29;103260.25;;;2.93
69785;BMP280;14177;51.520;6.764;2024-01-27T01:38:56;103256.69;;;2.89
69785;BMP280;14177;51.520;6.764;2024-01-27T01:41:25;103263.41;;;2.86
69785;BMP280;14177;51.520;6.764;2024-01-27T01:43:51;103265.78;;;2.81
69785;BMP280;14177;51.520;6.764;2024-01-27T01:46:18;103263.06;;;2.77
69785;BMP280;14177;51.520;6.764;2024-01-27T01:48:45;103266.31;;;2.73
69785;BMP280;14177;51.520;6.764;2024-01-27T01:51:14;103267.00;;;2.69
69785;BMP280;14177;51.520;6.764;2024-01-27T01:53:42;103271.94;;;2.64
69785;BMP280;14177;51.520;6.764;2024-01-27T01:56:09;103269.22;;;2.60
69785;BMP280;14177;51.520;6.764;2024-01-27T01:58:36;103275.97;;;2.58
69785;BMP280;14177;51.520;6.764;2024-01-27T02:01:04;103267.22;;;2.53
69785;BMP280;14177;51.520;6.764;2024-01-27T02:03:31;103276.41;;;2.48
69785;BMP280;14177;51.520;6.764;2024-01-27T02:05:58;103270.22;;;2.43
69785;BMP280;14177;51.520;6.764;2024-01-27T02:08:25;103274.41;;;2.41
69785;BMP280;14177;51.520;6.764;2024-01-27T02:10:52;103266.78;;;2.42
69785;BMP280;14177;51.520;6.764;2024-01-27T02:13:21;103270.22;;;2.43
69785;BMP280;14177;51.520;6.764;2024-01-27T02:15:50;103282.19;;;2.42
69785;BMP280;14177;51.520;6.764;2024-01-27T02:18:18;103271.72;;;2.38
69785;BMP280;14177;51.520;6.764;2024-01-27T02:20:45;103269.03;;;2.35
69785;BMP280;14177;51.520;6.764;2024-01-27T02:23:13;103271.41;;;2.31
69785;BMP280;14177;51.520;6.764;2024-01-27T02:25:40;103274.72;;;2.28
69785;BMP280;14177;51.520;6.764;2024-01-27T02:28:07;103275.28;;;2.21
69785;BMP280;14177;51.520;6.764;2024-01-27T02:30:34;103271.66;;;2.16
69785;BMP280;14177;51.520;6.764;2024-01-27T02:33:02;103276.53;;;2.10
69785;BMP280;14177;51.520;6.764;2024-01-27T02:35:29;103283.06;;;2.04
69785;BMP280;14177;51.520;6.764;2024-01-27T02:37:56;103274.41;;;2.00
69785;BMP280;14177;51.520;6.764;2024-01-27T02:40:24;103275.88;;;1.95
69785;BMP280;14177;51.520;6.764;2024-01-27T02:42:51;103284.25;;;1.91
69785;BMP280;14177;51.520;6.764;2024-01-27T02:45:18;103280.53;;;1.85
69785;BMP280;14177;51.520;6.764;2024-01-27T02:47:45;103284.66;;;1.81
69785;BMP280;14177;51.520;6.764;2024-01-27T02:50:13;103270.09;;;1.80
69785;BMP280;14177;51.520;6.764;2024-01-27T02:52:40;103278.78;;;1.84
69785;BMP280;14177;51.520;6.764;2024-01-27T02:55:07;103277.91;;;1.83
69785;BMP280;14177;51.520;6.764;2024-01-27T02:57:34;103283.84;;;1.82
69785;BMP280;14177;51.520;6.764;2024-01-27T03:00:01;103279.41;;;1.78
69785;BMP280;14177;51.520;6.764;2024-01-27T03:02:29;103281.69;;;1.72
69785;BMP280;14177;51.520;6.764;2024-01-27T03:04:56;103277.19;;;1.67
69785;BMP280;14177;51.520;6.764;2024-01-27T03:07:23;103294.09;;;1.63
69785;BMP280;14177;51.520;6.764;2024-01-27T03:09:51;103295.72;;;1.61
69785;BMP280;14177;51.520;6.764;2024-01-27T03:12:17;103287.03;;;1.58
69785;BMP280;14177;51.520;6.764;2024-01-27T03:14:45;103290.31;;;1.55
69785;BMP280;14177;51.520;6.764;2024-01-27T03:17:16;103293.56;;;1.51
69785;BMP280;14177;51.520;6.764;2024-01-27T03:19:43;103284.94;;;1.49
69785;BMP280;14177;51.520;6.764;2024-01-27T03:22:13;103294.22;;;1.47
69785;BMP280;14177;51.520;6.764;2024-01-27T03:24:40;103279.66;;;1.46
69785;BMP280;14177;51.520;6.764;2024-01-27T03:27:08;103283.94;;;1.46
69785;BMP280;14177;51.520;6.764;2024-01-27T03:29:35;103284.78;;;1.46
69785;BMP280;14177;51.520;6.764;2024-01-27T03:32:03;103286.63;;;1.49
69785;BMP280;14177;51.520;6.764;2024-01-27T03:34:30;103290.13;;;1.51
69785;BMP280;14177;51.520;6.764;2024-01-27T03:36:57;103300.56;;;1.55
69785;BMP280;14177;51.520;6.764;2024-01-27T03:39:24;103287.78;;;1.55
69785;BMP280;14177;51.520;6.764;2024-01-27T03:41:51;103287.78;;;1.55
69785;BMP280;14177;51.520;6.764;2024-01-27T03:44:18;103298.25;;;1.60
69785;BMP280;14177;51.520;6.764;2024-01-27T03:46:45;103294.25;;;1.66
69785;BMP280;14177;51.520;6.764;2024-01-27T03:49:12;103301.13;;;1.67
69785;BMP280;14177;51.520;6.764;2024-01-27T03:51:39;103295.88;;;1.64
69785;BMP280;14177;51.520;6.764;2024-01-27T03:54:06;103290.19;;;1.71
69785;BMP280;14177;51.520;6.764;2024-01-27T03:56:34;103295.53;;;1.76
69785;BMP280;14177;51.520;6.764;2024-01-27T03:59:01;103291.13;;;1.92
69785;BMP280;14177;51.520;6.764;2024-01-27T04:01:28;103287.22;;;2.00
69785;BMP280;14177;51.520;6.764;2024-01-27T04:03:55;103299.50;;;2.07
69785;BMP280;14177;51.520;6.764;2024-01-27T04:06:22;103309.94;;;2.12
69785;BMP280;14177;51.520;6.764;2024-01-27T04:08:49;103308.63;;;2.21
69785;BMP280;14177;51.520;6.764;2024-01-27T04:11:20;103302.88;;;2.27
69785;BMP280;14177;51.520;6.764;2024-01-27T04:13:50;103305.03;;;2.37
69785;BMP280;14177;51.520;6.764;2024-01-27T04:16:18;103301.81;;;2.42
69785;BMP280;14177;51.520;6.764;2024-01-27T04:18:46;103309.78;;;2.48
69785;BMP280;14177;51.520;6.764;2024-01-27T04:21:13;103305.03;;;2.57
69785;BMP280;14177;51.520;6.764;2024-01-27T04:23:40;103314.47;;;2.58
69785;BMP280;14177;51.520;6.764;2024-01-27T04:26:07;103309.34;;;2.58
69785;BMP280;14177;51.520;6.764;2024-01-27T04:28:36;103323.00;;;2.57
69785;BMP280;14177;51.520;6.764;2024-01-27T04:31:04;103324.75;;;2.58
69785;BMP280;14177;51.520;6.764;2024-01-27T04:33:31;103328.00;;;2.54
69785;BMP280;14177;51.520;6.764;2024-01-27T04:35:59;103328.44;;;2.44
69785;BMP280;14177;51.520;6.764;2024-01-27T04:38:26;103330.44;;;2.31
69785;BMP280;14177;51.520;6.764;2024-01-27T04:40:53;103333.41;;;2.21
69785;BMP280;14177;51.520;6.764;2024-01-27T04:43:20;103323.19;;;2.22
69785;BMP280;14177;51.520;6.764;2024-01-27T04:45:48;103322.53;;;2.26
69785;BMP280;14177;51.520;6.764;2024-01-27T04:48:16;103313.31;;;2.31
69785;BMP280;14177;51.520;6.764;2024-01-27T04:50:44;103315.91;;;2.31
69785;BMP280;14177;51.520;6.764;2024-01-27T04:53:11;103311.72;;;2.33
69785;BMP280;14177;51.520;6.764;2024-01-27T04:55:38;103316.97;;;2.36
69785;BMP280;14177;51.520;6.764;2024-01-27T04:58:07;103305.16;;;2.39
69785;BMP280;14177;51.520;6.764;2024-01-27T05:00:34;103301.00;;;2.43
69785;BMP280;14177;51.520;6.764;2024-01-27T05:03:02;103307.91;;;2.44
69785;BMP280;14177;51.520;6.764;2024-01-27T05:05:32;103301.25;;;2.49
69785;BMP280;14177;51.520;6.764;2024-01-27T05:08:03;103303.72;;;2.46
69785;BMP280;14177;51.520;6.764;2024-01-27T05:10:30;103307.50;;;2.35
69785;BMP280;14177;51.520;6.764;2024-01-27T05:12:57;103309.44;;;2.20
69785;BMP280;14177;51.520;6.764;2024-01-27T05:15:24;103298.56;;;2.05
69785;BMP280;14177;51.520;6.764;2024-01-27T05:17:51;103313.41;;;1.93
69785;BMP280;14177;51.520;6.764;2024-01-27T05:20:19;103306.88;;;1.81
69785;BMP280;14177;51.520;6.764;2024-01-27T05:22:46;103304.63;;;1.69
69785;BMP280;14177;51.520;6.764;2024-01-27T05:25:13;103303.28;;;1.58
69785;BMP280;14177;51.520;6.764;2024-01-27T05:27:40;103303.81;;;1.51
69785;BMP280;14177;51.520;6.764;2024-01-27T05:30:08;103301.69;;;1.41
69785;BMP280;14177;51.520;6.764;2024-01-27T05:32:35;103299.56;;;1.33
69785;BMP280;14177;51.520;6.764;2024-01-27T05:35:03;103307.84;;;1.27
69785;BMP280;14177;51.520;6.764;2024-01-27T05:37:32;103311.75;;;1.19
69785;BMP280;14177;51.520;6.764;2024-01-27T05:39:59;103316.56;;;1.14
69785;BMP280;14177;51.520;6.764;2024-01-27T05:42:26;103308.69;;;1.09
69785;BMP280;14177;51.520;6.764;2024-01-27T05:44:53;103321.25;;;1.05
69785;BMP280;14177;51.520;6.764;2024-01-27T05:47:20;103329.59;;;1.01
69785;BMP280;14177;51.520;6.764;2024-01-27T05:49:47;103319.97;;;0.95
69785;BMP280;14177;51.520;6.764;2024-01-27T05:52:14;103328.31;;;0.91
69785;BMP280;14177;51.520;6.764;2024-01-27T05:54:52;103322.16;;;0.88
69785;BMP280;14177;51.520;6.764;2024-01-27T05:57:20;103320.34;;;0.85
69785;BMP280;14177;51.520;6.764;2024-01-27T05:59:47;103333.34;;;0.90
69785;BMP280;14177;51.520;6.764;2024-01-27T06:02:14;103318.28;;;0.96
69785;BMP280;14177;51.520;6.764;2024-01-27T06:04:41;103323.47;;;0.97
69785;BMP280;14177;51.520;6.764;2024-01-27T06:07:08;103325.59;;;1.06
69785;BMP280;14177;51.520;6.764;2024-01-27T06:09:37;103323.44;;;1.15
69785;BMP280;14177;51.520;6.764;2024-01-27T06:12:05;103327.41;;;1.25
69785;BMP280;14177;51.520;6.764;2024-01-27T06:14:32;103319.47;;;1.38
69785;BMP280;14177;51.520;6.764;2024-01-27T06:17:02;103323.13;;;1.43
69785;BMP280;14177;51.520;6.764;2024-01-27T06:19:29;103327.53;;;1.47
69785;BMP280;14177;51.520;6.764;2024-01-27T06:21:57;103328.63;;;1.52
69785;BMP280;14177;51.520;6.764;2024-01-27T06:24:23;103320.22;;;1.55
69785;BMP280;14177;51.520;6.764;2024-01-27T06:26:51;103325.47;;;1.58
69785;BMP280;14177;51.520;6.764;2024-01-27T06:29:17;103322.31;;;1.63
69785;BMP280;14177;51.520;6.764;2024-01-27T06:31:45;103324.19;;;1.67
69785;BMP280;14177;51.520;6.764;2024-01-27T06:34:12;103324.19;;;1.67
69785;BMP280;14177;51.520;6.764;2024-01-27T06:36:39;103323.38;;;1.68
69785;BMP280;14177;51.520;6.764;2024-01-27T06:39:06;103338.91;;;1.71
69785;BMP280;14177;51.520;6.764;2024-01-27T06:41:34;103338.75;;;1.68
69785;BMP280;14177;51.520;6.764;2024-01-27T06:44:01;103349.25;;;1.73
69785;BMP280;14177;51.520;6.764;2024-01-27T06:46:29;103344.25;;;1.76
69785;BMP280;14177;51.520;6.764;2024-01-27T06:48:56;103348.63;;;1.78
69785;BMP280;14177;51.520;6.764;2024-01-27T06:51:24;103352.13;;;1.80
69785;BMP280;14177;51.520;6.764;2024-01-27T06:53:50;103359.81;;;1.80
69785;BMP280;14177;51.520;6.764;2024-01-27T06:56:17;103360.72;;;1.81
69785;BMP280;14177;51.520;6.764;2024-01-27T06:58:44;103359.78;;;1.79
69785;BMP280;14177;51.520;6.764;2024-01-27T07:01:11;103350.25;;;1.76
69785;BMP280;14177;51.520;6.764;2024-01-27T07:03:38;103363.88;;;1.75
69785;BMP280;14177;51.520;6.764;2024-01-27T07:06:06;103351.84;;;1.74
69785;BMP280;14177;51.520;6.764;2024-01-27T07:08:33;103351.00;;;1.74
69785;BMP280;14177;51.520;6.764;2024-01-27T07:11:04;103357.78;;;1.73
69785;BMP280;14177;51.520;6.764;2024-01-27T07:13:33;103358.59;;;1.72
69785;BMP280;14177;51.520;6.764;2024-01-27T07:16:00;103358.47;;;1.69
69785;BMP280;14177;51.520;6.764;2024-01-27T07:18:27;103372.91;;;1.67
69785;BMP280;14177;51.520;6.764;2024-01-27T07:20:56;103369.34;;;1.64
69785;BMP280;14177;51.520;6.764;2024-01-27T07:23:26;103366.69;;;1.62
69785;BMP280;14177;51.520;6.764;2024-01-27T07:25:53;103366.69;;;1.62
69785;BMP280;14177;51.520;6.764;2024-01-27T07:28:20;103371.81;;;1.62
69785;BMP280;14177;51.520;6.764;2024-01-27T07:30:47;103378.69;;;1.63
69785;BMP280;14177;51.520;6.764;2024-01-27T07:33:14;103374.47;;;1.64
69785;BMP280;14177;51.520;6.764;2024-01-27T07:35:41;103381.34;;;1.65
69785;BMP280;14177;51.520;6.764;2024-01-27T07:38:08;103377.06;;;1.65
69785;BMP280;14177;51.520;6.764;2024-01-27T07:40:35;103381.34;;;1.65
69785;BMP280;14177;51.520;6.764;2024-01-27T07:43:02;103389.97;;;1.67
69785;BMP280;14177;51.520;6.764;2024-01-27T07:45:30;103384.03;;;1.68
69785;BMP280;14177;51.520;6.764;2024-01-27T07:47:57;103380.69;;;1.69
69785;BMP280;14177;51.520;6.764;2024-01-27T07:50:27;103389.38;;;1.72
69785;BMP280;14177;51.520;6.764;2024-01-27T07:52:54;103381.94;;;1.78
69785;BMP280;14177;51.520;6.764;2024-01-27T07:55:22;103389.78;;;1.81
69785;BMP280;14177;51.520;6.764;2024-01-27T07:57:49;103401.94;;;1.85
69785;BMP280;14177;51.520;6.764;2024-01-27T08:00:16;103403.69;;;1.86
69785;BMP280;14177;51.520;6.764;2024-01-27T08:02:43;103403.03;;;1.90
69785;BMP280;14177;51.520;6.764;2024-01-27T08:05:11;103413.69;;;1.99
69785;BMP280;14177;51.520;6.764;2024-01-27T08:07:38;103413.03;;;2.03
69785;BMP280;14177;51.520;6.764;2024-01-27T08:10:05;103404.69;;;2.09
69785;BMP280;14177;51.520;6.764;2024-01-27T08:12:32;103404.03;;;2.13
69785;BMP280;14177;51.520;6.764;2024-01-27T08:15:00;103404.44;;;2.22
69785;BMP280;14177;51.520;6.764;2024-01-27T08:17:27;103414.84;;;2.25
69785;BMP280;14177;51.520;6.764;2024-01-27T08:19:54;103405.56;;;2.28
69785;BMP280;14177;51.520;6.764;2024-01-27T08:22:21;103404.84;;;2.31
69785;BMP280;14177;51.520;6.764;2024-01-27T08:24:48;103403.28;;;2.34
69785;BMP280;14177;51.520;6.764;2024-01-27T08:27:15;103414.59;;;2.39
69785;BMP280;14177;51.520;6.764;2024-01-27T08:29:42;103409.59;;;2.42
69785;BMP280;14177;51.520;6.764;2024-01-27T08:32:09;103410.63;;;2.45
69785;BMP280;14177;51.520;6.764;2024-01-27T08:34:36;103412.53;;;2.49
69785;BMP280;14177;51.520;6.764;2024-01-27T08:37:18;103405.00;;;2.54
69785;BMP280;14177;51.520;6.764;2024-01-27T08:39:46;103423.09;;;2.57
69785;BMP280;14177;51.520;6.764;2024-01-27T08:42:13;103419.91;;;2.62
69785;BMP280;14177;51.520;6.764;2024-01-27T08:44:40;103437.28;;;2.68
69785;BMP280;14177;51.520;6.764;2024-01-27T08:47:07;103440.22;;;2.77
69785;BMP280;14177;51.520;6.764;2024-01-27T08:49:35;103419.94;;;2.83
69785;BMP280;14177;51.520;6.764;2024-01-27T08:52:03;103420.28;;;2.92
69785;BMP280;14177;51.520;6.764;2024-01-27T08:54:30;103424.94;;;3.00
69785;BMP280;14177;51.520;6.764;2024-01-27T08:56:57;103419.16;;;3.06
69785;BMP280;14177;51.520;6.764;2024-01-27T08:59:24;103419.41;;;3.12
69785;BMP280;14177;51.520;6.764;2024-01-27T09:01:51;103418.03;;;3.20
69785;BMP280;14177;51.520;6.764;2024-01-27T09:04:18;103412.22;;;3.24
69785;BMP280;14177;51.520;6.764;2024-01-27T09:06:46;103415.97;;;3.32
69785;BMP280;14177;51.520;6.764;2024-01-27T09:09:13;103419.38;;;3.53
69785;BMP280;14177;51.520;6.764;2024-01-27T09:11:40;103408.38;;;4.02
69785;BMP280;14177;51.520;6.764;2024-01-27T09:14:07;103411.44;;;4.62
69785;BMP280;14177;51.520;6.764;2024-01-27T09:16:34;103407.81;;;5.33
69785;BMP280;14177;51.520;6.764;2024-01-27T09:19:01;103415.88;;;5.99
69785;BMP280;14177;51.520;6.764;2024-01-27T09:21:29;103411.06;;;6.42
69785;BMP280;14177;51.520;6.764;2024-01-27T09:23:58;103418.66;;;6.69
69785;BMP280;14177;51.520;6.764;2024-01-27T09:26:26;103402.03;;;6.92
69785;BMP280;14177;51.520;6.764;2024-01-27T09:28:53;103400.59;;;6.70
69785;BMP280;14177;51.520;6.764;2024-01-27T09:31:23;103398.25;;;6.45
69785;BMP280;14177;51.520;6.764;2024-01-27T09:33:52;103395.06;;;6.89
69785;BMP280;14177;51.520;6.764;2024-01-27T09:36:20;103397.41;;;7.51
69785;BMP280;14177;51.520;6.764;2024-01-27T09:38:48;103395.78;;;7.94
69785;BMP280;14177;51.520;6.764;2024-01-27T09:41:15;103407.50;;;8.19
69785;BMP280;14177;51.520;6.764;2024-01-27T09:43:45;103401.72;;;8.30
69785;BMP280;14177;51.520;6.764;2024-01-27T09:46:13;103395.16;;;8.50
69785;BMP280;14177;51.520;6.764;2024-01-27T09:48:41;103391.53;;;8.89
69785;BMP280;14177;51.520;6.764;2024-01-27T09:51:10;103402.50;;;9.25
69785;BMP280;14177;51.520;6.764;2024-01-27T09:53:38;103403.56;;;9.38
69785;BMP280;14177;51.520;6.764;2024-01-27T09:56:06;103400.38;;;9.57
69785;BMP280;14177;51.520;6.764;2024-01-27T09:58:34;103401.50;;;9.75
69785;BMP280;14177;51.520;6.764;2024-01-27T10:01:11;103415.56;;;9.92
69785;BMP280;14177;51.520;6.764;2024-01-27T10:04:08;103425.38;;;10.11
69785;BMP280;14177;51.520;6.764;2024-01-27T10:06:50;103418.66;;;10.29
69785;BMP280;14177;51.520;6.764;2024-01-27T10:09:33;103419.06;;;10.67
69785;BMP280;14177;51.520;6.764;2024-01-27T10:12:37;103425.88;;;10.56
69785;BMP280;14177;51.520;6.764;2024-01-27T10:19:21;103428.56;;;9.93
69785;BMP280;14177;51.520;6.764;2024-01-27T10:22:13;103440.19;;;10.18
69785;BMP280;14177;51.520;6.764;2024-01-27T10:44:28;103425.56;;;11.16
69785;BMP280;14177;51.520;6.764;2024-01-27T10:47:01;103422.97;;;11.15
69785;BMP280;14177;51.520;6.764;2024-01-27T10:49:37;103430.03;;;11.34
69785;BMP280;14177;51.520;6.764;2024-01-27T10:52:11;103423.28;;;11.57
69785;BMP280;14177;51.520;6.764;2024-01-27T10:54:42;103417.28;;;11.65
69785;BMP280;14177;51.520;6.764;2024-01-27T10:57:11;103420.59;;;11.48
69785;BMP280;14177;51.520;6.764;2024-01-27T10:59:40;103419.66;;;11.38
69785;BMP280;14177;51.520;6.764;2024-01-27T11:02:13;103420.72;;;11.61
69785;BMP280;14177;51.520;6.764;2024-01-27T11:04:42;103423.41;;;11.78
69785;BMP280;14177;51.520;6.764;2024-01-27T11:07:09;103415.56;;;11.73
69785;BMP280;14177;51.520;6.764;2024-01-27T11:09:38;103422.59;;;11.88
69785;BMP280;14177;51.520;6.764;2024-01-27T11:12:07;103422.66;;;12.06
69785;BMP280;14177;51.520;6.764;2024-01-27T11:14:34;103418.41;;;12.24
69785;BMP280;14177;51.520;6.764;2024-01-27T11:17:03;103424.50;;;12.32
69785;BMP280;14177;51.520;6.764;2024-01-27T11:19:30;103417.56;;;12.43
69785;BMP280;14177;51.520;6.764;2024-01-27T11:22:04;103417.56;;;12.43
69785;BMP280;14177;51.520;6.764;2024-01-27T11:24:31;103419.31;;;12.50
69785;BMP280;14177;51.520;6.764;2024-01-27T11:27:03;103419.38;;;12.80
69785;BMP280;14177;51.520;6.764;2024-01-27T11:29:32;103428.13;;;12.97
69785;BMP280;14177;51.520;6.764;2024-01-27T11:32:04;103421.13;;;12.84
69785;BMP280;14177;51.520;6.764;2024-01-27T11:35:59;103410.72;;;12.97
69785;BMP280;14177;51.520;6.764;2024-01-27T11:39:36;103403.72;;;12.86
69785;BMP280;14177;51.520;6.764;2024-01-27T11:42:13;103413.22;;;12.33
69785;BMP280;14177;51.520;6.764;2024-01-27T11:45:17;103403.66;;;12.33
69785;BMP280;14177;51.520;6.764;2024-01-27T11:47:50;103408.84;;;12.33
69785;BMP280;14177;51.520;6.764;2024-01-27T11:50:31;103410.59;;;12.27
69785;BMP280;14177;51.520;6.764;2024-01-27T11:52:58;103412.34;;;12.46
69785;BMP280;14177;51.520;6.764;2024-01-27T11:55:26;103407.19;;;12.56
69785;BMP280;14177;51.520;6.764;2024-01-27T11:57:53;103415.91;;;12.81
69785;BMP280;14177;51.520;6.764;2024-01-27T12:00:21;103403.75;;;13.08
69785;BMP280;14177;51.520;6.764;2024-01-27T12:02:51;103399.34;;;13.49
69785;BMP280;14177;51.520;6.764;2024-01-27T12:05:18;103410.66;;;13.49
69785;BMP280;14177;51.520;6.764;2024-01-27T12:07:46;103403.59;;;13.83
69785;BMP280;14177;51.520;6.764;2024-01-27T12:10:17;103393.97;;;13.97
69785;BMP280;14177;51.520;6.764;2024-01-27T12:12:53;103401.72;;;14.13
69785;BMP280;14177;51.520;6.764;2024-01-27T12:19:12;103399.06;;;14.30
69785;BMP280;14177;51.520;6.764;2024-01-27T12:22:29;103386.00;;;14.27
69785;BMP280;14177;51.520;6.764;2024-01-27T12:25:26;103382.34;;;14.56
69785;BMP280;14177;51.520;6.764;2024-01-27T12:28:51;103389.28;;;14.57
69785;BMP280;14177;51.520;6.764;2024-01-27T12:31:48;103384.31;;;14.20
69785;BMP280;14177;51.520;6.764;2024-01-27T12:34:52;103387.81;;;14.16
69785;BMP280;14177;51.520;6.764;2024-01-27T12:37:36;103375.50;;;14.34
69785;BMP280;14177;51.520;6.764;2024-01-27T12:41:00;103370.81;;;14.79
69785;BMP280;14177;51.520;6.764;2024-01-27T12:43:59;103381.38;;;14.67
69785;BMP280;14177;51.520;6.764;2024-01-27T12:56:26;103374.94;;;15.06
69785;BMP280;14177;51.520;6.764;2024-01-27T12:59:34;103377.84;;;14.71
69785;BMP280;14177;51.520;6.764;2024-01-27T13:02:54;103373.56;;;14.60
69785;BMP280;14177;51.520;6.764;2024-01-27T13:05:29;103375.38;;;14.55
69785;BMP280;14177;51.520;6.764;2024-01-27T13:08:15;103375.66;;;13.97
69785;BMP280;14177;51.520;6.764;2024-01-27T13:10:51;103372.13;;;14.14
69785;BMP280;14177;51.520;6.764;2024-01-27T13:13:28;103364.25;;;14.20
69785;BMP280;14177;51.520;6.764;2024-01-27T13:16:02;103364.28;;;14.10
69785;BMP280;14177;51.520;6.764;2024-01-27T13:18:29;103374.78;;;13.93
69785;BMP280;14177;51.520;6.764;2024-01-27T13:20:57;103362.56;;;13.98
69785;BMP280;14177;51.520;6.764;2024-01-27T13:23:24;103362.56;;;14.06
69785;BMP280;14177;51.520;6.764;2024-01-27T13:25:54;103354.63;;;14.28
69785;BMP280;14177;51.520;6.764;2024-01-27T13:28:41;103366.94;;;13.96
69785;BMP280;14177;51.520;6.764;2024-01-27T13:31:08;103355.66;;;13.90
69785;BMP280;14177;51.520;6.764;2024-01-27T13:33:35;103350.44;;;13.85
69785;BMP280;14177;51.520;6.764;2024-01-27T13:36:03;103359.09;;;14.04
69785;BMP280;14177;51.520;6.764;2024-01-27T13:38:30;103358.19;;;14.03
69785;BMP280;14177;51.520;6.764;2024-01-27T13:40:58;103359.09;;;13.96
69785;BMP280;14177;51.520;6.764;2024-01-27T13:43:25;103358.25;;;13.91
69785;BMP280;14177;51.520;6.764;2024-01-27T13:45:52;103359.19;;;13.77
69785;BMP280;14177;51.520;6.764;2024-01-27T13:48:21;103364.47;;;13.63
69785;BMP280;14177;51.520;6.764;2024-01-27T13:50:49;103366.19;;;13.66
69785;BMP280;14177;51.520;6.764;2024-01-27T13:53:16;103360.81;;;14.00
69785;BMP280;14177;51.520;6.764;2024-01-27T13:55:43;103357.31;;;14.18
69785;BMP280;14177;51.520;6.764;2024-01-27T13:58:11;103347.63;;;14.30
69785;BMP280;14177;51.520;6.764;2024-01-27T14:00:38;103347.72;;;14.06
69785;BMP280;14177;51.520;6.764;2024-01-27T14:03:05;103343.47;;;13.92
69785;BMP280;14177;51.520;6.764;2024-01-27T14:05:32;103342.63;;;13.84
69785;BMP280;14177;51.520;6.764;2024-01-27T14:07:59;103340.81;;;13.93
69785;BMP280;14177;51.520;6.764;2024-01-27T14:10:27;103340.78;;;14.04
69785;BMP280;14177;51.520;6.764;2024-01-27T14:12:54;103338.03;;;14.32
69785;BMP280;14177;51.520;6.764;2024-01-27T14:15:21;103331.25;;;13.97
69785;BMP280;14177;51.520;6.764;2024-01-27T14:17:48;103331.53;;;13.25
69785;BMP280;14177;51.520;6.764;2024-01-27T14:20:15;103327.19;;;12.78
69785;BMP280;14177;51.520;6.764;2024-01-27T14:22:43;103328.91;;;12.40
69785;BMP280;14177;51.520;6.764;2024-01-27T14:25:11;103315.88;;;12.35
69785;BMP280;14177;51.520;6.764;2024-01-27T14:27:38;103324.56;;;12.24
69785;BMP280;14177;51.520;6.764;2024-01-27T14:30:06;103326.31;;;12.38
69785;BMP280;14177;51.520;6.764;2024-01-27T14:32:34;103314.16;;;12.49
69785;BMP280;14177;51.520;6.764;2024-01-27T14:35:03;103316.75;;;12.49
69785;BMP280;14177;51.520;6.764;2024-01-27T14:45:37;103314.16;;;12.73
69785;BMP280;14177;51.520;6.764;2024-01-27T14:48:28;103312.41;;;12.51
69785;BMP280;14177;51.520;6.764;2024-01-27T14:50:59;103321.94;;;12.42
69785;BMP280;14177;51.520;6.764;2024-01-27T14:53:57;103308.91;;;12.22
69785;BMP280;14177;51.520;6.764;2024-01-27T15:03:05;103315.00;;;12.17
69785;BMP280;14177;51.520;6.764;2024-01-27T15:06:34;103308.03;;;12.13
69785;BMP280;14177;51.520;6.764;2024-01-27T15:09:42;103305.41;;;12.07
69785;BMP280;14177;51.520;6.764;2024-01-27T15:12:19;103306.22;;;11.91
69785;BMP280;14177;51.520;6.764;2024-01-27T15:15:02;103318.31;;;11.74
69785;BMP280;14177;51.520;6.764;2024-01-27T15:52:18;103301.91;;;8.51
69785;BMP280;14177;51.520;6.764;2024-01-27T15:55:06;103301.72;;;8.40
69785;BMP280;14177;51.520;6.764;2024-01-27T16:02:43;103310.56;;;8.08
69785;BMP280;14177;51.520;6.764;2024-01-27T16:06:23;103302.50;;;7.91
69785;BMP280;14177;51.520;6.764;2024-01-27T16:10:34;103297.91;;;7.77
69785;BMP280;14177;51.520;6.764;2024-01-27T16:13:32;103290.81;;;7.67
69785;BMP280;14177;51.520;6.764;2024-01-27T16:16:15;103295.78;;;7.58
69785;BMP280;14177;51.520;6.764;2024-01-27T16:19:05;103295.53;;;7.46
69785;BMP280;14177;51.520;6.764;2024-01-27T16:21:57;103295.34;;;7.37
69785;BMP280;14177;51.520;6.764;2024-01-27T16:24:46;103289.88;;;7.22